Pagrindinis puslapis
METAR-TAF:

METAR-TAF

Oro uostai :

Cayman Brac, Kaimanų salos

platuma: 19-41-13N, ilguma: 079-52-58W, Aukštis: 2 m

Dabartinis oras

Ataskaita buvo paskelbta 1 valandą ir 1 minutes, ne 21:00 UTC
Vėjas 5 kt iš Pietryčių
Temperatūra 29°C
Drėgmė 79%
Slėgis 1014 hPa
Matomumas 10 km arba daugiau
Išsisklaidę debesys ne aukštis 1600 ft

METAR: MWCB 172100Z 14005KT 9999 SCT016 29/25 Q1014

Laikas: 17:01 (22:01 UTC)

Prognozė

Ataskaita buvo paskelbta 11 valandos ir 1 minutes, ne 11:00 UTC
Prognozė galioja nuo 17 metu 12 UTC su 18 metu 12 UTC
Vėjas 10 kt iš Rytų
Matomumas 10 km arba daugiau
Išsisklaidę debesys ne aukštis 1800 ft
Liūtis kaimynystėje
Tikimybė 40% :
Laikinai
nuo 17 metu 17 UTC su 17 metu 23 UTC
Matomumas: 8000 m
Su prošvaistėmis ne aukštis 1600 ft, Liūtiniai kamuoliniai debesys.
lietus

TAF: MWCB 171100Z 1712/1812 08010KT 9999 VCSH SCT018 PROB40 TEMPO 1717/1723 8000 SHRA BKN016CB

Orai ataskaitas ir orų prognozės (METAR, TAF).

turimą stotys yra geltonos ir raudonos taškus žemėlapyje.

Perkelti pele per norėdami pamatyti stoties vardą.

Tada spustelėkite, norėdami matyti oro stebėjimo ir prognozės.

Norėdami pakeisti žemėlapį: spustelėkite ant žalios mygtukų su juodo kryžiaus žemyn,; žalią mygtuką su brūkšneliu, jei norite nutolinti; arba žalių rodyklių gretimoms žemėlapius.


METAR-TAF: